createdAt,value
2018-12-06T00:01:18.338Z,99.90
2018-12-06T00:03:46.599Z,99.90
2018-12-06T00:06:14.814Z,99.90
2018-12-06T00:08:43.802Z,99.90
2018-12-06T00:11:12.395Z,99.90
2018-12-06T00:13:40.619Z,99.90
2018-12-06T00:16:08.894Z,99.90
2018-12-06T00:18:37.583Z,99.90
2018-12-06T00:21:05.847Z,99.90
2018-12-06T00:23:34.045Z,99.90
2018-12-06T00:26:02.358Z,99.90
2018-12-06T00:28:30.575Z,99.90
2018-12-06T00:30:58.771Z,99.90
2018-12-06T00:33:27.051Z,99.90
2018-12-06T00:35:55.289Z,99.90
2018-12-06T00:38:23.517Z,99.90
2018-12-06T00:40:51.763Z,99.90
2018-12-06T00:43:20.018Z,99.90
2018-12-06T00:45:48.537Z,99.90
2018-12-06T00:48:16.823Z,99.90
2018-12-06T00:50:45.139Z,99.90
2018-12-06T00:53:13.427Z,99.90
2018-12-06T00:55:42.072Z,99.90
2018-12-06T00:58:10.559Z,99.90
2018-12-06T01:00:38.747Z,99.90
2018-12-06T01:03:07.092Z,99.90
2018-12-06T01:05:35.519Z,99.90
2018-12-06T01:08:04.245Z,99.90
2018-12-06T01:10:32.543Z,99.90
2018-12-06T01:13:00.783Z,99.90
2018-12-06T01:15:29.009Z,99.90
2018-12-06T01:17:57.296Z,99.90
2018-12-06T01:20:25.489Z,99.90
2018-12-06T01:22:53.774Z,99.90
2018-12-06T01:25:22.004Z,99.90
2018-12-06T01:27:50.218Z,99.90
2018-12-06T01:30:18.459Z,99.90
2018-12-06T01:32:47.003Z,99.90
2018-12-06T01:35:15.212Z,99.90
2018-12-06T01:37:43.444Z,99.90
2018-12-06T01:40:11.802Z,99.90
2018-12-06T01:42:40.017Z,99.90
2018-12-06T01:45:08.427Z,99.90
2018-12-06T01:47:36.675Z,99.90
2018-12-06T01:50:05.667Z,99.90
2018-12-06T01:52:33.872Z,99.90
2018-12-06T01:55:02.146Z,99.90
2018-12-06T01:57:30.559Z,99.90
2018-12-06T01:59:58.770Z,99.90
2018-12-06T02:02:27.213Z,99.90
2018-12-06T02:04:55.559Z,99.90
2018-12-06T02:07:23.844Z,99.90
2018-12-06T02:09:52.082Z,99.90
2018-12-06T02:12:20.852Z,99.90
2018-12-06T02:14:49.081Z,99.90
2018-12-06T02:17:17.296Z,99.90
2018-12-06T02:19:45.598Z,99.90
2018-12-06T02:22:13.908Z,99.90
2018-12-06T02:24:42.591Z,99.90
2018-12-06T02:27:10.945Z,99.90
2018-12-06T02:29:44.585Z,99.90
2018-12-06T02:32:13.134Z,99.90
2018-12-06T02:34:41.343Z,99.90
2018-12-06T02:37:09.579Z,99.90
2018-12-06T02:39:37.803Z,99.90
2018-12-06T02:42:06.091Z,99.90
2018-12-06T02:44:34.412Z,99.90
2018-12-06T02:47:02.644Z,99.90
2018-12-06T02:49:30.946Z,99.90
2018-12-06T02:51:59.240Z,99.90
2018-12-06T02:54:27.542Z,99.90
2018-12-06T02:56:55.820Z,99.90
2018-12-06T02:59:24.042Z,99.90
2018-12-06T03:01:52.432Z,99.90
2018-12-06T03:04:20.853Z,99.90
2018-12-06T03:06:49.069Z,99.90
2018-12-06T03:09:17.275Z,99.90
2018-12-06T03:11:45.622Z,99.90
2018-12-06T03:14:13.908Z,99.90
2018-12-06T03:16:42.315Z,99.90
2018-12-06T03:19:10.548Z,99.90
2018-12-06T03:21:38.855Z,99.90
2018-12-06T03:24:07.133Z,99.90
2018-12-06T03:26:35.428Z,99.90
2018-12-06T03:29:03.944Z,99.90
2018-12-06T03:31:32.240Z,99.90
2018-12-06T03:34:00.587Z,99.90
2018-12-06T03:36:28.884Z,99.90
2018-12-06T03:38:57.183Z,99.90
2018-12-06T03:41:25.411Z,99.90
2018-12-06T03:43:53.702Z,99.90
2018-12-06T03:46:21.986Z,99.90
2018-12-06T03:48:50.406Z,99.90
2018-12-06T03:51:18.962Z,99.90
2018-12-06T03:53:47.231Z,99.90
2018-12-06T03:56:15.460Z,99.90
2018-12-06T03:58:43.659Z,99.90
2018-12-06T04:01:11.865Z,99.90
2018-12-06T04:03:40.097Z,99.90
2018-12-06T04:06:08.432Z,99.90
2018-12-06T04:08:36.962Z,99.90
2018-12-06T04:11:05.195Z,99.90
2018-12-06T04:13:33.431Z,99.90
2018-12-06T04:22:45.982Z,99.90
2018-12-06T04:25:14.271Z,99.90
2018-12-06T04:27:42.547Z,99.90
2018-12-06T04:30:10.860Z,99.90
2018-12-06T04:32:39.076Z,99.90
2018-12-06T04:35:07.464Z,99.90
2018-12-06T04:37:35.770Z,99.90
2018-12-06T04:40:04.271Z,99.90
2018-12-06T04:42:32.591Z,99.90
2018-12-06T04:45:01.024Z,99.90
2018-12-06T04:47:29.230Z,99.90
2018-12-06T04:49:57.531Z,99.90
2018-12-06T04:52:25.751Z,99.90
2018-12-06T04:54:54.007Z,99.90
2018-12-06T04:57:22.493Z,99.90
2018-12-06T04:59:50.712Z,99.90
2018-12-06T05:02:19.131Z,99.90
2018-12-06T05:04:47.387Z,99.90
2018-12-06T05:07:15.591Z,99.90
2018-12-06T05:09:43.797Z,99.90
2018-12-06T05:12:11.991Z,99.90
2018-12-06T05:14:40.202Z,99.90
2018-12-06T05:17:08.724Z,99.90
2018-12-06T05:19:36.967Z,99.90
2018-12-06T05:22:05.179Z,99.90
2018-12-06T05:24:33.379Z,99.90
2018-12-06T05:27:01.603Z,99.90
2018-12-06T05:29:29.803Z,99.90
2018-12-06T05:31:58.059Z,99.90
2018-12-06T05:34:26.239Z,99.90
2018-12-06T05:36:54.443Z,99.90
2018-12-06T05:39:22.746Z,99.90
2018-12-06T05:41:51.119Z,99.90
2018-12-06T05:44:19.381Z,99.90
2018-12-06T05:46:47.583Z,99.90
2018-12-06T05:49:15.779Z,99.90
2018-12-06T05:51:43.971Z,99.90
2018-12-06T05:54:12.195Z,99.90
2018-12-06T05:56:40.391Z,99.90
2018-12-06T05:59:08.603Z,99.90
2018-12-06T06:01:36.779Z,99.90
2018-12-06T06:04:05.019Z,99.90
2018-12-06T06:06:33.283Z,99.90
2018-12-06T06:09:02.137Z,99.90
2018-12-06T06:11:30.412Z,99.90
2018-12-06T06:13:58.818Z,99.90
2018-12-06T06:16:27.216Z,99.90
2018-12-06T06:18:55.579Z,99.90
2018-12-06T06:21:23.759Z,99.90
2018-12-06T06:23:51.959Z,99.90
2018-12-06T06:26:20.463Z,99.90
2018-12-06T06:28:49.419Z,99.90
2018-12-06T06:31:17.699Z,99.90
2018-12-06T06:33:46.626Z,99.90
2018-12-06T06:36:14.835Z,99.90
2018-12-06T06:38:43.105Z,99.90
2018-12-06T06:41:11.367Z,99.90
2018-12-06T06:43:39.983Z,99.90
2018-12-06T06:46:08.254Z,99.90
2018-12-06T06:48:36.643Z,99.90
2018-12-06T06:51:04.917Z,99.90
2018-12-06T06:53:33.100Z,99.90
2018-12-06T06:56:01.319Z,99.90
2018-12-06T06:58:29.650Z,99.90
2018-12-06T07:00:57.991Z,99.90
2018-12-06T07:03:26.231Z,99.90
2018-12-06T07:05:54.493Z,99.90
2018-12-06T07:08:22.763Z,99.90
2018-12-06T07:10:50.973Z,99.90
2018-12-06T07:13:19.199Z,99.90
2018-12-06T07:15:47.438Z,99.90
2018-12-06T07:18:16.879Z,99.90
2018-12-06T07:20:45.107Z,99.90
2018-12-06T07:23:13.540Z,99.90
2018-12-06T07:25:46.251Z,99.90
2018-12-06T07:28:12.735Z,99.90
2018-12-06T07:30:41.250Z,99.90
2018-12-06T07:33:09.608Z,99.90
2018-12-06T07:35:37.995Z,99.90
2018-12-06T07:38:06.347Z,99.90
2018-12-06T07:40:34.852Z,99.90
2018-12-06T07:43:03.895Z,99.90
2018-12-06T07:45:32.355Z,99.90
2018-12-06T07:48:00.605Z,99.90
2018-12-06T07:50:28.994Z,99.90
2018-12-06T07:52:57.504Z,99.90
2018-12-06T07:55:29.836Z,99.90
2018-12-06T07:57:58.177Z,99.90
2018-12-06T08:00:31.896Z,99.90
2018-12-06T08:03:00.095Z,99.90
2018-12-06T08:05:28.405Z,99.90
2018-12-06T08:07:56.850Z,99.90
2018-12-06T08:10:27.073Z,99.90
2018-12-06T08:12:55.314Z,99.90
2018-12-06T08:15:24.324Z,99.90
2018-12-06T08:17:55.035Z,99.90
2018-12-06T08:20:25.401Z,99.90
2018-12-06T08:22:54.197Z,99.90
2018-12-06T08:25:22.401Z,99.90
2018-12-06T08:27:50.703Z,99.90
2018-12-06T08:30:18.953Z,99.90
2018-12-06T08:32:47.576Z,99.90
2018-12-06T08:35:16.133Z,99.90
2018-12-06T08:37:46.395Z,99.90
2018-12-06T08:40:14.614Z,99.90
2018-12-06T08:42:45.861Z,99.90
2018-12-06T08:45:13.407Z,99.90
2018-12-06T08:47:41.639Z,99.90
2018-12-06T08:50:10.211Z,99.90
2018-12-06T08:52:39.650Z,99.90
2018-12-06T08:55:07.864Z,99.90
2018-12-06T08:57:36.132Z,99.90
2018-12-06T09:00:04.947Z,99.90
2018-12-06T09:02:35.515Z,99.90
2018-12-06T09:05:04.005Z,99.90
2018-12-06T09:07:32.414Z,99.90
2018-12-06T09:10:00.700Z,99.90
2018-12-06T09:12:29.087Z,99.90
2018-12-06T09:14:57.463Z,99.90
2018-12-06T09:17:25.988Z,99.90
2018-12-06T09:19:54.614Z,99.90
2018-12-06T09:22:24.475Z,99.90
2018-12-06T09:24:53.113Z,99.90
2018-12-06T09:27:21.631Z,99.90
2018-12-06T09:29:49.972Z,99.90
2018-12-06T09:32:18.530Z,99.90
2018-12-06T09:34:46.737Z,99.90
2018-12-06T09:37:18.788Z,99.90
2018-12-06T09:40:00.996Z,99.90
2018-12-06T09:42:29.200Z,99.90
2018-12-06T09:44:58.136Z,99.90
2018-12-06T09:47:26.681Z,99.90
2018-12-06T09:49:54.934Z,99.90
2018-12-06T09:52:23.380Z,99.90
2018-12-06T09:54:56.859Z,99.90
2018-12-06T09:57:25.404Z,99.90
2018-12-06T09:59:53.768Z,99.90
2018-12-06T10:02:22.084Z,99.90
2018-12-06T10:04:51.755Z,99.90
2018-12-06T10:07:20.100Z,99.90
2018-12-06T10:09:48.411Z,99.90
2018-12-06T10:12:16.710Z,99.90
2018-12-06T10:14:45.127Z,99.90
2018-12-06T10:17:13.475Z,99.90
2018-12-06T10:19:41.787Z,99.90
2018-12-06T10:22:10.371Z,99.90
2018-12-06T10:24:38.633Z,99.90
2018-12-06T10:27:06.876Z,99.90
2018-12-06T10:29:35.644Z,99.90
2018-12-06T10:32:04.238Z,99.90
2018-12-06T10:34:36.942Z,99.90
2018-12-06T10:37:08.691Z,99.90
2018-12-06T10:39:37.118Z,99.90
2018-12-06T10:42:05.499Z,99.90
2018-12-06T10:44:33.813Z,99.90
2018-12-06T10:47:02.455Z,99.90
2018-12-06T10:49:32.784Z,99.90
2018-12-06T10:52:01.368Z,99.90
2018-12-06T10:54:29.770Z,99.90
2018-12-06T10:56:58.322Z,99.90
2018-12-06T10:59:31.923Z,99.90
2018-12-06T11:02:03.716Z,99.90
2018-12-06T11:04:36.398Z,99.90
2018-12-06T11:07:06.623Z,99.90
2018-12-06T11:09:35.015Z,99.90
2018-12-06T11:12:04.982Z,99.90
2018-12-06T11:14:33.549Z,99.90
2018-12-06T11:17:02.057Z,99.90
2018-12-06T11:19:30.533Z,99.90
2018-12-06T11:21:58.874Z,99.90
2018-12-06T11:24:28.826Z,99.90
2018-12-06T11:26:57.129Z,99.90
2018-12-06T11:29:25.751Z,99.90
2018-12-06T11:31:54.637Z,99.90
2018-12-06T11:34:22.971Z,99.90
2018-12-06T11:36:51.283Z,99.90
2018-12-06T11:39:19.924Z,99.90
2018-12-06T11:41:48.168Z,99.90
2018-12-06T11:44:16.523Z,99.90
2018-12-06T11:46:45.444Z,99.90
2018-12-06T11:49:14.617Z,99.90
2018-12-06T11:51:42.861Z,99.90
2018-12-06T11:54:11.233Z,99.90
2018-12-06T11:56:40.017Z,99.90
2018-12-06T11:59:08.264Z,99.90
2018-12-06T12:01:37.124Z,99.90
2018-12-06T12:04:05.375Z,99.90
2018-12-06T12:06:33.755Z,99.90
2018-12-06T12:09:02.112Z,99.90
2018-12-06T12:11:30.433Z,99.90
2018-12-06T12:13:58.659Z,99.90
2018-12-06T12:16:26.908Z,99.90
2018-12-06T12:18:55.522Z,99.90
2018-12-06T12:21:24.301Z,99.90
2018-12-06T12:23:52.649Z,99.90
2018-12-06T12:26:21.289Z,99.90
2018-12-06T12:28:49.837Z,99.90
2018-12-06T12:31:18.044Z,99.90
2018-12-06T12:33:46.299Z,99.90
2018-12-06T12:36:14.503Z,99.90
2018-12-06T12:38:43.800Z,99.90
2018-12-06T12:41:16.908Z,91.10
2018-12-06T12:43:45.220Z,78.10
2018-12-06T12:46:13.625Z,64.60
2018-12-06T12:48:41.895Z,58.10
2018-12-06T12:51:10.384Z,54.50
2018-12-06T12:53:42.302Z,51.50
2018-12-06T12:56:15.054Z,50.60
2018-12-06T12:58:43.911Z,49.60
2018-12-06T13:01:12.495Z,51.10
2018-12-06T13:03:41.204Z,51.90
2018-12-06T13:06:09.640Z,54.60
2018-12-06T13:08:38.023Z,56.70
2018-12-06T13:11:06.255Z,59.40
2018-12-06T13:13:36.170Z,59.50
2018-12-06T13:16:04.681Z,60.00
2018-12-06T13:18:32.908Z,61.90
2018-12-06T13:21:01.172Z,62.70
2018-12-06T13:23:29.454Z,64.30
2018-12-06T13:25:57.868Z,66.10
2018-12-06T13:28:26.259Z,68.30
2018-12-06T13:30:54.677Z,70.40
2018-12-06T13:33:23.299Z,71.80
2018-12-06T13:35:51.510Z,74.80
2018-12-06T13:38:19.855Z,75.80
2018-12-06T13:40:48.179Z,78.40
2018-12-06T13:43:17.547Z,81.10
2018-12-06T13:45:45.900Z,82.60
2018-12-06T13:48:14.119Z,83.80
2018-12-06T13:50:42.647Z,85.90
2018-12-06T13:53:10.939Z,86.90
2018-12-06T13:55:39.256Z,88.00
2018-12-06T13:58:07.750Z,89.20
2018-12-06T14:00:36.171Z,89.80
2018-12-06T14:03:06.131Z,90.60
2018-12-06T14:05:34.540Z,91.60
2018-12-06T14:08:06.969Z,92.10
2018-12-06T14:10:35.776Z,92.50
2018-12-06T14:13:04.033Z,93.30
2018-12-06T14:15:32.364Z,93.90
2018-12-06T14:18:00.538Z,94.30
2018-12-06T14:20:28.756Z,94.70
2018-12-06T14:22:57.044Z,95.70
2018-12-06T14:25:30.108Z,96.30
2018-12-06T14:27:58.295Z,97.20
2018-12-06T14:30:26.541Z,98.20
2018-12-06T14:32:55.377Z,98.80
2018-12-06T14:35:23.584Z,99.40
2018-12-06T14:37:53.030Z,99.90
2018-12-06T14:40:21.294Z,99.90
2018-12-06T14:42:49.950Z,99.90
2018-12-06T14:45:18.837Z,99.90
2018-12-06T14:47:47.290Z,99.90
2018-12-06T14:50:15.804Z,99.90
2018-12-06T14:52:48.786Z,99.90
2018-12-06T14:55:17.441Z,99.90
2018-12-06T14:57:45.675Z,99.90
2018-12-06T15:00:14.094Z,99.90
2018-12-06T15:02:42.307Z,99.90
2018-12-06T15:05:10.851Z,99.90
2018-12-06T15:07:39.697Z,99.90
2018-12-06T15:10:08.737Z,99.90
2018-12-06T15:12:36.975Z,99.90
2018-12-06T15:15:05.666Z,99.90
2018-12-06T15:17:34.512Z,99.90
2018-12-06T15:20:03.315Z,99.90
2018-12-06T15:22:31.959Z,99.90
2018-12-06T15:25:00.618Z,99.90
2018-12-06T15:27:29.155Z,99.90
2018-12-06T15:29:57.852Z,99.90
2018-12-06T15:32:26.233Z,99.90
2018-12-06T15:34:57.989Z,99.90
2018-12-06T15:37:26.237Z,99.90
2018-12-06T15:39:54.463Z,99.90
2018-12-06T15:42:22.775Z,99.90
2018-12-06T15:44:51.813Z,99.90
2018-12-06T15:47:20.119Z,99.90
2018-12-06T15:49:49.490Z,99.90
2018-12-06T15:52:18.186Z,99.90
2018-12-06T15:54:46.438Z,99.90
2018-12-06T15:57:15.167Z,99.90
2018-12-06T15:59:43.380Z,99.90
2018-12-06T16:02:16.034Z,99.90
2018-12-06T16:04:44.375Z,99.90
2018-12-06T16:07:12.611Z,99.90
2018-12-06T16:09:40.816Z,99.90
2018-12-06T16:12:10.932Z,99.90
2018-12-06T16:14:41.088Z,99.90
2018-12-06T16:17:09.315Z,99.90
2018-12-06T16:19:37.575Z,99.90
2018-12-06T16:22:09.787Z,99.90
2018-12-06T16:24:38.239Z,99.90
2018-12-06T16:27:06.733Z,99.90
2018-12-06T16:29:35.247Z,99.90
2018-12-06T16:32:08.239Z,99.90
2018-12-06T16:34:36.593Z,99.90
2018-12-06T16:37:04.974Z,99.90
2018-12-06T16:39:36.647Z,99.90
2018-12-06T16:42:04.980Z,99.90
2018-12-06T16:44:33.239Z,99.90
2018-12-06T16:47:01.557Z,99.90
2018-12-06T16:49:30.396Z,99.90
2018-12-06T16:52:00.029Z,99.90
2018-12-06T16:54:28.996Z,99.90
2018-12-06T16:56:57.376Z,99.90
2018-12-06T16:59:25.635Z,99.90
2018-12-06T17:01:54.718Z,99.90
2018-12-06T17:04:23.284Z,99.90
2018-12-06T17:06:51.501Z,99.90
2018-12-06T17:09:20.803Z,99.90
2018-12-06T17:11:49.026Z,99.90
2018-12-06T17:14:17.287Z,99.90
2018-12-06T17:16:45.790Z,99.90
2018-12-06T17:19:14.611Z,99.90
2018-12-06T17:21:42.882Z,99.90
2018-12-06T17:24:11.262Z,99.90
2018-12-06T17:26:39.547Z,99.90
2018-12-06T17:29:07.813Z,99.90
2018-12-06T17:31:36.118Z,99.90
2018-12-06T17:34:05.262Z,99.90
2018-12-06T17:36:33.500Z,99.90
2018-12-06T17:39:02.015Z,99.90
2018-12-06T17:41:31.336Z,99.90
2018-12-06T17:43:59.848Z,99.90
2018-12-06T17:46:29.817Z,99.90
2018-12-06T17:48:58.148Z,99.90
2018-12-06T17:51:26.963Z,99.90
2018-12-06T17:53:55.209Z,99.90
2018-12-06T17:56:24.253Z,99.90
2018-12-06T17:58:53.151Z,99.90
2018-12-06T18:01:21.528Z,99.90
2018-12-06T18:03:50.063Z,99.90
2018-12-06T18:06:18.344Z,99.90
2018-12-06T18:08:46.903Z,99.90
2018-12-06T18:11:15.231Z,99.90
2018-12-06T18:13:43.715Z,99.90
2018-12-06T18:16:19.248Z,99.90
2018-12-06T18:18:43.150Z,99.90
2018-12-06T18:21:11.512Z,99.90
2018-12-06T18:23:39.756Z,99.90
2018-12-06T18:26:08.129Z,99.90
2018-12-06T18:28:37.556Z,99.90
2018-12-06T18:31:05.926Z,99.90
2018-12-06T18:33:34.162Z,99.90
2018-12-06T18:36:03.468Z,99.90
2018-12-06T18:38:31.674Z,99.90
2018-12-06T18:41:00.017Z,99.90
2018-12-06T18:43:33.795Z,99.90
2018-12-06T18:46:03.911Z,99.90
2018-12-06T18:48:32.395Z,99.90
2018-12-06T18:51:00.596Z,99.90
2018-12-06T18:53:29.296Z,99.90
2018-12-06T18:55:58.081Z,99.90
2018-12-06T18:58:26.348Z,99.90
2018-12-06T19:00:54.547Z,99.90
2018-12-06T19:03:22.771Z,99.90
2018-12-06T19:05:50.990Z,99.90
2018-12-06T19:08:19.324Z,99.90
2018-12-06T19:10:47.644Z,99.90
2018-12-06T19:13:16.002Z,99.90
2018-12-06T19:15:44.477Z,99.90
2018-12-06T19:18:12.779Z,99.90
2018-12-06T19:20:41.015Z,99.90
2018-12-06T19:23:09.223Z,99.90
2018-12-06T19:25:41.048Z,99.90
2018-12-06T19:28:09.249Z,99.90
2018-12-06T19:30:37.602Z,99.90
2018-12-06T19:33:05.982Z,99.90
2018-12-06T19:35:34.528Z,99.90
2018-12-06T19:38:03.621Z,99.90
2018-12-06T19:40:31.944Z,99.90
2018-12-06T19:43:00.542Z,99.90
2018-12-06T19:45:29.637Z,99.90
2018-12-06T19:47:58.711Z,99.90
2018-12-06T19:50:27.167Z,99.90
2018-12-06T19:52:55.650Z,99.90
2018-12-06T19:55:23.849Z,99.90
2018-12-06T19:57:52.461Z,99.90
2018-12-06T20:00:57.322Z,99.90
2018-12-06T20:03:25.889Z,99.90
2018-12-06T20:05:54.980Z,99.90
2018-12-06T20:08:23.278Z,99.90
2018-12-06T20:10:51.457Z,99.90
2018-12-06T20:13:19.695Z,99.90
2018-12-06T20:15:49.118Z,99.90
2018-12-06T20:18:17.459Z,99.90
2018-12-06T20:20:45.860Z,99.90
2018-12-06T20:23:14.127Z,99.90
2018-12-06T20:25:42.332Z,99.90
2018-12-06T20:28:10.559Z,99.90
2018-12-06T20:30:39.428Z,99.90
2018-12-06T20:33:07.775Z,99.90
2018-12-06T20:35:36.069Z,99.90
2018-12-06T20:38:04.435Z,99.90
2018-12-06T20:40:33.311Z,99.90
2018-12-06T20:43:01.811Z,99.90
2018-12-06T20:45:30.041Z,99.90
2018-12-06T20:47:59.314Z,99.90
2018-12-06T20:50:27.523Z,99.90
2018-12-06T20:52:55.736Z,99.90
2018-12-06T20:55:23.956Z,99.90
2018-12-06T20:57:52.168Z,99.90
2018-12-06T21:00:20.512Z,99.90
2018-12-06T21:02:48.823Z,99.90
2018-12-06T21:05:17.275Z,99.90
2018-12-06T21:07:45.544Z,99.90
2018-12-06T21:10:13.851Z,99.90
2018-12-06T21:12:42.162Z,99.90
2018-12-06T21:15:10.508Z,99.90
2018-12-06T21:17:38.758Z,99.90
2018-12-06T21:20:07.855Z,99.90
2018-12-06T21:22:36.153Z,99.90
2018-12-06T21:25:05.423Z,99.90
2018-12-06T21:27:33.858Z,99.90
2018-12-06T21:30:02.155Z,99.90
2018-12-06T21:32:30.385Z,99.90
2018-12-06T21:34:58.683Z,99.90
2018-12-06T21:37:26.978Z,99.90
2018-12-06T21:39:55.295Z,99.90
2018-12-06T21:42:23.551Z,99.90
2018-12-06T21:44:51.756Z,99.90
2018-12-06T21:47:26.431Z,99.90
2018-12-06T21:49:55.310Z,99.90
2018-12-06T21:52:23.735Z,99.90
2018-12-06T22:01:36.068Z,99.90
2018-12-06T22:04:04.334Z,99.90
2018-12-06T22:06:32.594Z,99.90
2018-12-06T22:09:01.224Z,99.90
2018-12-06T22:11:29.495Z,99.90
2018-12-06T22:13:57.805Z,99.90
2018-12-06T22:16:26.020Z,99.90
2018-12-06T22:18:54.431Z,99.90
2018-12-06T22:21:22.757Z,99.90
2018-12-06T22:23:50.972Z,99.90
2018-12-06T22:26:19.318Z,99.90
2018-12-06T22:28:47.539Z,99.90
2018-12-06T22:31:16.055Z,99.90
2018-12-06T22:33:44.358Z,99.90
2018-12-06T22:36:12.631Z,99.90
2018-12-06T22:38:40.905Z,99.90
2018-12-06T22:41:09.160Z,99.90
2018-12-06T22:43:37.491Z,99.90
2018-12-06T22:46:05.896Z,99.90
2018-12-06T22:48:34.110Z,99.90
2018-12-06T22:51:02.459Z,99.90
2018-12-06T22:53:30.939Z,99.90
2018-12-06T22:55:59.213Z,99.90
2018-12-06T22:58:27.421Z,99.90
2018-12-06T23:00:58.935Z,99.90
2018-12-06T23:03:27.488Z,99.90
2018-12-06T23:05:55.883Z,99.90
2018-12-06T23:08:24.178Z,99.90
2018-12-06T23:10:52.683Z,99.90
2018-12-06T23:13:20.926Z,99.90
2018-12-06T23:15:49.463Z,99.90
2018-12-06T23:18:17.856Z,99.90
2018-12-06T23:20:46.124Z,99.90
2018-12-06T23:23:14.606Z,99.90
2018-12-06T23:25:42.934Z,99.90
2018-12-06T23:28:12.972Z,99.90
2018-12-06T23:30:41.443Z,99.90
2018-12-06T23:33:09.671Z,99.90
2018-12-06T23:35:37.895Z,99.90
2018-12-06T23:38:06.271Z,99.90
2018-12-06T23:40:34.520Z,99.90
2018-12-06T23:43:02.796Z,99.90
2018-12-06T23:45:31.124Z,99.90
2018-12-06T23:47:59.454Z,99.90
2018-12-06T23:50:27.752Z,99.90
2018-12-06T23:52:56.209Z,99.90
2018-12-06T23:55:24.507Z,99.90
2018-12-06T23:57:52.919Z,99.90
